createdAt,value
2016-11-27T00:00:02.812Z,27.76
2016-11-27T00:00:43.362Z,28.15
2016-11-27T00:01:23.914Z,27.86
2016-11-27T00:02:04.463Z,28.25
2016-11-27T00:02:45.011Z,27.67
2016-11-27T00:03:25.546Z,27.76
2016-11-27T00:04:06.096Z,27.86
2016-11-27T00:04:46.650Z,27.76
2016-11-27T00:05:27.201Z,27.96
2016-11-27T00:06:07.745Z,27.66
2016-11-27T00:06:48.294Z,27.86
2016-11-27T00:07:28.829Z,27.85
2016-11-27T00:08:09.379Z,27.85
2016-11-27T00:08:49.925Z,27.76
2016-11-27T00:09:30.480Z,27.76
2016-11-27T00:10:11.015Z,27.67
2016-11-27T00:10:51.558Z,27.85
2016-11-27T00:11:32.104Z,27.86
2016-11-27T00:12:12.647Z,27.76
2016-11-27T00:12:53.187Z,27.76
2016-11-27T00:13:33.741Z,27.86
2016-11-27T00:14:14.278Z,27.76
2016-11-27T00:14:54.819Z,28.05
2016-11-27T00:15:35.380Z,27.57
2016-11-27T00:16:15.927Z,27.57
2016-11-27T00:16:56.467Z,27.85
2016-11-27T00:17:36.999Z,27.75
2016-11-27T00:18:17.570Z,27.76
2016-11-27T00:18:58.122Z,27.76
2016-11-27T00:19:38.663Z,27.96
2016-11-27T00:20:19.211Z,27.96
2016-11-27T00:20:59.763Z,27.86
2016-11-27T00:21:40.310Z,27.96
2016-11-27T00:22:20.848Z,27.76
2016-11-27T00:23:01.383Z,27.86
2016-11-27T00:23:41.916Z,27.76
2016-11-27T00:24:22.464Z,27.67
2016-11-27T00:25:03.006Z,27.76
2016-11-27T00:25:43.565Z,27.75
2016-11-27T00:26:24.105Z,27.76
2016-11-27T00:27:04.651Z,27.67
2016-11-27T00:27:45.200Z,27.48
2016-11-27T00:28:25.759Z,28.05
2016-11-27T00:29:06.303Z,27.57
2016-11-27T00:29:46.843Z,27.86
2016-11-27T00:30:27.393Z,27.86
2016-11-27T00:31:07.931Z,27.96
2016-11-27T00:31:48.473Z,27.96
2016-11-27T00:32:29.020Z,27.86
2016-11-27T00:33:09.572Z,28.23
2016-11-27T00:33:50.108Z,27.86
2016-11-27T00:34:30.675Z,27.96
2016-11-27T00:35:11.223Z,28.05
2016-11-27T00:35:51.776Z,28.05
2016-11-27T00:36:32.323Z,27.86
2016-11-27T00:37:12.865Z,27.96
2016-11-27T00:37:53.420Z,27.86
2016-11-27T00:38:33.968Z,27.86
2016-11-27T00:39:14.518Z,27.57
2016-11-27T00:39:55.056Z,27.67
2016-11-27T00:40:35.599Z,28.05
2016-11-27T00:41:16.134Z,27.96
2016-11-27T00:41:56.681Z,27.96
2016-11-27T00:42:37.224Z,28.25
2016-11-27T00:43:17.775Z,27.96
2016-11-27T00:43:58.312Z,28.05
2016-11-27T00:44:38.851Z,27.86
2016-11-27T00:45:19.399Z,27.96
2016-11-27T00:45:59.945Z,27.86
2016-11-27T00:46:40.489Z,28.25
2016-11-27T00:47:21.033Z,28.05
2016-11-27T00:48:01.596Z,28.15
2016-11-27T00:48:42.147Z,27.96
2016-11-27T00:49:22.700Z,27.96
2016-11-27T00:50:03.246Z,27.86
2016-11-27T00:50:43.799Z,28.25
2016-11-27T00:51:24.339Z,27.96
2016-11-27T00:52:04.887Z,27.76
2016-11-27T00:52:45.428Z,28.25
2016-11-27T00:53:25.972Z,27.86
2016-11-27T00:54:06.511Z,28.25
2016-11-27T00:54:47.059Z,28.23
2016-11-27T00:55:27.606Z,27.86
2016-11-27T00:56:08.134Z,27.48
2016-11-27T00:56:48.711Z,28.25
2016-11-27T00:57:29.264Z,27.96
2016-11-27T00:58:09.809Z,27.76
2016-11-27T00:58:50.352Z,27.76
2016-11-27T00:59:30.897Z,28.25
2016-11-27T01:00:11.434Z,28.05
2016-11-27T01:00:51.971Z,28.05
2016-11-27T01:01:32.511Z,28.15
2016-11-27T01:02:13.049Z,28.15
2016-11-27T01:02:53.617Z,28.25
2016-11-27T01:03:34.157Z,28.25
2016-11-27T01:04:14.719Z,27.86
2016-11-27T01:04:55.256Z,28.15
2016-11-27T01:05:35.810Z,28.05
2016-11-27T01:06:16.360Z,28.05
2016-11-27T01:06:56.904Z,28.15
2016-11-27T01:07:37.441Z,27.96
2016-11-27T01:08:17.987Z,28.05
2016-11-27T01:08:58.526Z,28.04
2016-11-27T01:09:39.067Z,28.05
2016-11-27T01:10:19.631Z,28.04
2016-11-27T01:11:00.167Z,28.15
2016-11-27T01:11:40.725Z,28.05
2016-11-27T01:12:21.265Z,27.96
2016-11-27T01:13:01.827Z,28.05
2016-11-27T01:13:42.365Z,28.05
2016-11-27T01:14:22.900Z,28.15
2016-11-27T01:15:03.454Z,27.76
2016-11-27T01:15:44.005Z,27.86
2016-11-27T01:16:24.565Z,27.96
2016-11-27T01:17:05.106Z,28.15
2016-11-27T01:17:45.645Z,28.15
2016-11-27T01:18:26.190Z,28.05
2016-11-27T01:19:06.733Z,28.15
2016-11-27T01:19:47.278Z,27.86
2016-11-27T01:20:27.826Z,27.48
2016-11-27T01:21:08.364Z,27.86
2016-11-27T01:21:48.905Z,28.15
2016-11-27T01:22:29.447Z,27.76
2016-11-27T01:23:09.988Z,28.05
2016-11-27T01:23:50.539Z,28.15
2016-11-27T01:24:31.086Z,28.15
2016-11-27T01:25:11.642Z,28.25
2016-11-27T01:25:52.194Z,27.96
2016-11-27T01:26:32.744Z,28.15
2016-11-27T01:27:13.289Z,28.05
2016-11-27T01:27:53.842Z,27.86
2016-11-27T01:28:34.388Z,28.05
2016-11-27T01:29:14.928Z,28.33
2016-11-27T01:29:55.483Z,27.76
2016-11-27T01:30:36.021Z,27.86
2016-11-27T01:31:16.586Z,28.15
2016-11-27T01:31:57.132Z,28.15
2016-11-27T01:32:37.683Z,28.05
2016-11-27T01:33:18.221Z,27.96
2016-11-27T01:33:58.767Z,28.25
2016-11-27T01:34:39.308Z,28.15
2016-11-27T01:35:19.861Z,27.86
2016-11-27T01:36:00.403Z,28.05
2016-11-27T01:36:40.951Z,28.15
2016-11-27T01:37:21.497Z,27.76
2016-11-27T01:38:02.033Z,27.94
2016-11-27T01:38:42.574Z,27.96
2016-11-27T01:39:23.114Z,28.15
2016-11-27T01:40:03.654Z,27.96
2016-11-27T01:40:44.203Z,28.15
2016-11-27T01:41:24.765Z,28.15
2016-11-27T01:42:05.306Z,28.14
2016-11-27T01:42:45.867Z,27.96
2016-11-27T01:43:26.411Z,28.34
2016-11-27T01:44:06.951Z,28.05
2016-11-27T01:44:47.502Z,28.05
2016-11-27T01:45:28.037Z,28.05
2016-11-27T01:46:08.581Z,28.05
2016-11-27T01:46:49.124Z,27.96
2016-11-27T01:47:29.677Z,28.05
2016-11-27T01:48:10.235Z,28.44
2016-11-27T01:48:50.772Z,28.04
2016-11-27T01:49:31.313Z,28.25
2016-11-27T01:50:11.902Z,28.14
2016-11-27T01:50:52.444Z,28.05
2016-11-27T01:51:32.993Z,28.23
2016-11-27T01:52:13.512Z,27.96
2016-11-27T01:52:54.069Z,28.34
2016-11-27T01:53:34.618Z,28.53
2016-11-27T01:54:15.171Z,27.94
2016-11-27T01:54:55.718Z,28.15
2016-11-27T01:55:36.256Z,28.25
2016-11-27T01:56:16.813Z,28.05
2016-11-27T01:56:57.352Z,28.04
2016-11-27T01:57:37.911Z,28.05
2016-11-27T01:58:18.472Z,28.05
2016-11-27T01:58:59.006Z,28.05
2016-11-27T01:59:39.547Z,28.53
2016-11-27T02:00:20.088Z,28.34
2016-11-27T02:01:00.625Z,28.05
2016-11-27T02:01:41.172Z,28.44
2016-11-27T02:02:21.718Z,28.15
2016-11-27T02:03:02.248Z,28.15
2016-11-27T02:03:42.795Z,28.15
2016-11-27T02:04:23.334Z,28.34
2016-11-27T02:05:03.899Z,28.63
2016-11-27T02:05:44.441Z,28.44
2016-11-27T02:06:24.980Z,28.53
2016-11-27T02:07:05.524Z,28.63
2016-11-27T02:07:46.076Z,28.63
2016-11-27T02:08:26.613Z,28.34
2016-11-27T02:09:07.154Z,28.44
2016-11-27T02:09:47.704Z,28.52
2016-11-27T02:10:28.236Z,28.44
2016-11-27T02:11:08.802Z,28.63
2016-11-27T02:11:49.347Z,28.15
2016-11-27T02:12:29.903Z,28.25
2016-11-27T02:13:10.448Z,28.05
2016-11-27T02:13:50.994Z,28.53
2016-11-27T02:14:31.538Z,28.62
2016-11-27T02:15:12.082Z,28.63
2016-11-27T02:15:52.644Z,28.53
2016-11-27T02:16:33.181Z,28.34
2016-11-27T02:17:13.735Z,28.44
2016-11-27T02:17:54.287Z,28.44
2016-11-27T02:18:34.843Z,28.63
2016-11-27T02:19:15.388Z,28.53
2016-11-27T02:19:55.943Z,28.34
2016-11-27T02:20:36.486Z,28.63
2016-11-27T02:21:17.032Z,28.53
2016-11-27T02:21:57.564Z,28.53
2016-11-27T02:22:38.099Z,28.53
2016-11-27T02:23:18.650Z,28.34
2016-11-27T02:23:59.195Z,28.34
2016-11-27T02:24:39.759Z,28.73
2016-11-27T02:25:20.312Z,29.11
2016-11-27T02:26:00.867Z,28.53
2016-11-27T02:26:41.405Z,28.53
2016-11-27T02:27:21.943Z,28.42
2016-11-27T02:28:02.498Z,28.05
2016-11-27T02:28:43.040Z,28.34
2016-11-27T02:29:23.583Z,28.34
2016-11-27T02:30:04.129Z,28.34
2016-11-27T02:30:44.676Z,28.53
2016-11-27T02:31:25.230Z,28.44
2016-11-27T02:32:05.775Z,28.53
2016-11-27T02:32:46.322Z,28.44
2016-11-27T02:33:26.861Z,28.63
2016-11-27T02:34:07.409Z,28.25
2016-11-27T02:34:47.954Z,28.63
2016-11-27T02:35:28.502Z,28.44
2016-11-27T02:36:09.050Z,28.34
2016-11-27T02:36:49.588Z,28.25
2016-11-27T02:37:30.133Z,28.44
2016-11-27T02:38:10.672Z,28.73
2016-11-27T02:38:51.219Z,28.63
2016-11-27T02:39:31.770Z,28.73
2016-11-27T02:40:12.313Z,28.63
2016-11-27T02:40:52.872Z,28.53
2016-11-27T02:41:33.424Z,28.34
2016-11-27T02:42:13.975Z,28.34
2016-11-27T02:42:54.511Z,28.63
2016-11-27T02:43:35.055Z,28.52
2016-11-27T02:44:15.595Z,28.44
2016-11-27T02:44:56.130Z,28.34
2016-11-27T02:45:36.680Z,28.83
2016-11-27T02:46:17.224Z,28.72
2016-11-27T02:46:57.772Z,28.62
2016-11-27T02:47:38.312Z,28.53
2016-11-27T02:48:18.848Z,28.53
2016-11-27T02:48:59.391Z,28.63
2016-11-27T02:49:39.949Z,28.73
2016-11-27T02:50:20.475Z,28.63
2016-11-27T02:51:01.019Z,28.34
2016-11-27T02:51:41.559Z,28.73
2016-11-27T02:52:22.103Z,29.21
2016-11-27T02:53:02.648Z,28.53
2016-11-27T02:53:43.187Z,29.11
2016-11-27T02:54:23.727Z,29.02
2016-11-27T02:55:04.269Z,29.11
2016-11-27T02:55:44.830Z,28.73
2016-11-27T02:56:25.373Z,29.11
2016-11-27T02:57:05.925Z,28.73
2016-11-27T02:57:46.461Z,28.91
2016-11-27T02:58:27.006Z,29.11
2016-11-27T02:59:07.562Z,29.02
2016-11-27T02:59:48.106Z,29.11
2016-11-27T03:00:28.658Z,29.11
2016-11-27T03:01:09.198Z,29.11
2016-11-27T03:01:49.728Z,29.11
2016-11-27T03:02:30.272Z,29.11
2016-11-27T03:03:10.816Z,29.1
2016-11-27T03:03:51.372Z,28.73
2016-11-27T03:04:31.900Z,29.11
2016-11-27T03:05:12.446Z,28.83
2016-11-27T03:05:52.979Z,28.83
2016-11-27T03:06:33.536Z,29
2016-11-27T03:07:14.080Z,29.02
2016-11-27T03:07:55.154Z,29.1
2016-11-27T03:08:35.715Z,29.02
2016-11-27T03:09:16.259Z,28.83
2016-11-27T03:09:56.810Z,28.92
2016-11-27T03:10:37.356Z,28.92
2016-11-27T03:11:17.904Z,28.92
2016-11-27T03:11:58.447Z,29.11
2016-11-27T03:12:38.986Z,29.02
2016-11-27T03:13:19.538Z,29.02
2016-11-27T03:14:00.097Z,28.92
2016-11-27T03:14:40.655Z,28.92
2016-11-27T03:15:21.197Z,29.02
2016-11-27T03:16:01.745Z,28.92
2016-11-27T03:16:42.287Z,29.02
2016-11-27T03:17:22.820Z,29.02
2016-11-27T03:18:03.369Z,29.02
2016-11-27T03:18:43.907Z,28.92
2016-11-27T03:19:24.467Z,29.11
2016-11-27T03:20:05.016Z,29.02
2016-11-27T03:20:45.575Z,28.92
2016-11-27T03:21:26.123Z,29.02
2016-11-27T03:22:06.662Z,28.92
2016-11-27T03:22:47.211Z,28.92
2016-11-27T03:23:27.747Z,28.92
2016-11-27T03:24:08.289Z,28.83
2016-11-27T03:24:48.832Z,28.92
2016-11-27T03:25:29.375Z,28.92
2016-11-27T03:26:09.921Z,28.83
2016-11-27T03:26:50.462Z,29.02
2016-11-27T03:27:31.013Z,29.02
2016-11-27T03:28:11.558Z,29.02
2016-11-27T03:28:52.104Z,28.92
2016-11-27T03:29:32.669Z,29.11
2016-11-27T03:30:13.215Z,29.11
2016-11-27T03:30:53.770Z,28.92
2016-11-27T03:31:34.303Z,28.92
2016-11-27T03:32:14.839Z,29.02
2016-11-27T03:32:55.382Z,29.11
2016-11-27T03:33:35.919Z,29.1
2016-11-27T03:34:16.466Z,29.02
2016-11-27T03:34:57.002Z,29.02
2016-11-27T03:35:37.577Z,29.11
2016-11-27T03:36:18.092Z,29.02
2016-11-27T03:36:58.636Z,29.21
2016-11-27T03:37:39.178Z,29.21
2016-11-27T03:38:19.724Z,28.92
2016-11-27T03:39:00.269Z,28.92
2016-11-27T03:39:40.803Z,29.02
2016-11-27T03:40:21.345Z,28.92
2016-11-27T03:41:01.878Z,29.02
2016-11-27T03:41:42.415Z,28.92
2016-11-27T03:42:22.959Z,28.92
2016-11-27T03:43:03.505Z,28.92
2016-11-27T03:43:44.053Z,29.11
2016-11-27T03:44:24.602Z,28.92
2016-11-27T03:45:05.145Z,28.83
2016-11-27T03:45:45.693Z,29.02
2016-11-27T03:46:26.242Z,28.92
2016-11-27T03:47:06.784Z,29.02
2016-11-27T03:47:47.330Z,28.92
2016-11-27T03:48:27.888Z,29.02
2016-11-27T03:49:08.438Z,28.92
2016-11-27T03:49:48.972Z,29.1
2016-11-27T03:50:29.523Z,29.02
2016-11-27T03:51:10.060Z,29.02
2016-11-27T03:51:50.593Z,29.21
2016-11-27T03:52:31.136Z,28.91
2016-11-27T03:53:11.673Z,29.02
2016-11-27T03:53:52.209Z,28.92
2016-11-27T03:54:32.779Z,28.92
2016-11-27T03:55:13.325Z,28.92
2016-11-27T03:55:53.880Z,29.11
2016-11-27T03:56:34.417Z,29.02
2016-11-27T03:57:14.971Z,28.83
2016-11-27T03:57:55.520Z,29.11
2016-11-27T03:58:36.080Z,29.11
2016-11-27T03:59:16.624Z,29.21
2016-11-27T03:59:57.168Z,29.11
2016-11-27T04:00:37.711Z,29.11
2016-11-27T04:01:18.265Z,29.02
2016-11-27T04:01:58.804Z,29.11
2016-11-27T04:02:39.344Z,29.11
2016-11-27T04:03:19.879Z,29.11
2016-11-27T04:04:00.430Z,29.41
2016-11-27T04:04:40.987Z,29.11
2016-11-27T04:05:21.532Z,29.02
2016-11-27T04:06:02.080Z,29.21
2016-11-27T04:06:42.628Z,29.02
2016-11-27T04:07:23.165Z,29.11
2016-11-27T04:08:03.703Z,29.21
2016-11-27T04:08:44.246Z,29.11
2016-11-27T04:09:24.794Z,29.21
2016-11-27T04:10:05.322Z,29.31
2016-11-27T04:10:45.863Z,29.2
2016-11-27T04:11:26.408Z,29.5
2016-11-27T04:12:06.971Z,29.41
2016-11-27T04:12:47.522Z,29.21
2016-11-27T04:13:28.061Z,29.31
2016-11-27T04:14:08.602Z,29.21
2016-11-27T04:14:49.155Z,29.31
2016-11-27T04:15:29.701Z,29.31
2016-11-27T04:16:10.240Z,29.11
2016-11-27T04:16:50.811Z,29.41
2016-11-27T04:17:31.354Z,29.41
2016-11-27T04:18:11.890Z,29.31
2016-11-27T04:18:52.435Z,29.5
2016-11-27T04:19:32.982Z,29.11
2016-11-27T04:20:13.527Z,29.31
2016-11-27T04:20:54.074Z,29.31
2016-11-27T04:21:34.617Z,29.21
2016-11-27T04:22:15.177Z,29.41
2016-11-27T04:22:55.720Z,29.31
2016-11-27T04:23:36.261Z,29.21
2016-11-27T04:24:16.817Z,29.21
2016-11-27T04:24:57.354Z,29.11
2016-11-27T04:25:37.918Z,29.11
2016-11-27T04:26:18.461Z,29.41
2016-11-27T04:26:59.016Z,29.11
2016-11-27T04:27:39.565Z,29.21
2016-11-27T04:28:20.122Z,29.41
2016-11-27T04:29:00.672Z,29.21
2016-11-27T04:29:41.213Z,29.21
2016-11-27T04:30:21.751Z,29.31
2016-11-27T04:31:02.295Z,29.41
2016-11-27T04:31:42.831Z,29.41
2016-11-27T04:32:23.386Z,29.21
2016-11-27T04:33:03.933Z,29.41
2016-11-27T04:33:44.482Z,29.41
2016-11-27T04:34:25.031Z,29.41
2016-11-27T04:35:05.577Z,29.41
2016-11-27T04:35:46.128Z,29.31
2016-11-27T04:36:26.671Z,29.29
2016-11-27T04:37:07.210Z,29.41
2016-11-27T04:37:47.761Z,29.6
2016-11-27T04:38:28.297Z,29.5
2016-11-27T04:39:08.845Z,29.5
2016-11-27T04:39:49.395Z,29.39
2016-11-27T04:40:29.935Z,29.31
2016-11-27T04:41:10.483Z,29.41
2016-11-27T04:41:51.036Z,29.21
2016-11-27T04:42:31.575Z,29.5
2016-11-27T04:43:12.136Z,29.5
2016-11-27T04:43:52.685Z,29.5
2016-11-27T04:44:33.229Z,29.31
2016-11-27T04:45:13.766Z,29.5
2016-11-27T04:45:54.311Z,29.41
2016-11-27T04:46:34.860Z,29.5
2016-11-27T04:47:15.397Z,29.41
2016-11-27T04:47:55.941Z,29.41
2016-11-27T04:48:36.492Z,29.41
2016-11-27T04:49:17.042Z,29.5
2016-11-27T04:49:57.592Z,29.31
2016-11-27T04:50:38.151Z,29.41
2016-11-27T04:51:18.699Z,29.41
2016-11-27T04:51:59.243Z,29.29
2016-11-27T04:52:39.784Z,29.31
2016-11-27T04:53:20.331Z,29.49
2016-11-27T04:54:00.870Z,29.5
2016-11-27T04:54:41.410Z,29.41
2016-11-27T04:55:21.949Z,29.5
2016-11-27T04:56:02.497Z,29.49
2016-11-27T04:56:43.046Z,29.31
2016-11-27T04:57:23.595Z,29.41
2016-11-27T04:58:04.134Z,29.41
2016-11-27T04:58:44.680Z,29.41
2016-11-27T04:59:25.217Z,29.41
2016-11-27T05:00:05.762Z,29.41
2016-11-27T05:00:46.308Z,29.41
2016-11-27T05:01:26.860Z,29.41
2016-11-27T05:02:07.415Z,29.6
2016-11-27T05:02:47.969Z,29.41
2016-11-27T05:03:28.511Z,29.41
2016-11-27T05:04:09.058Z,29.49
2016-11-27T05:04:49.607Z,29.41
2016-11-27T05:05:30.157Z,29.5
2016-11-27T05:06:10.704Z,29.6
2016-11-27T05:06:51.247Z,29.31
2016-11-27T05:07:31.784Z,29.39
2016-11-27T05:08:12.335Z,29.39
2016-11-27T05:08:52.879Z,29.5
2016-11-27T05:09:33.430Z,29.5
2016-11-27T05:10:13.973Z,29.41
2016-11-27T05:10:54.523Z,29.41
2016-11-27T05:11:35.069Z,29.21
2016-11-27T05:12:15.622Z,29.31
2016-11-27T05:12:56.167Z,29.41
2016-11-27T05:13:36.723Z,29.41
2016-11-27T05:14:17.268Z,29.6
2016-11-27T05:14:57.813Z,29.5
2016-11-27T05:15:38.356Z,29.41
2016-11-27T05:16:18.897Z,29.41
2016-11-27T05:16:59.439Z,29.5
2016-11-27T05:17:39.976Z,29.5
2016-11-27T05:18:20.519Z,29.41
2016-11-27T05:19:01.080Z,29.41
2016-11-27T05:19:41.633Z,29.69
2016-11-27T05:20:22.175Z,29.31
2016-11-27T05:21:02.718Z,29.69
2016-11-27T05:21:43.258Z,29.6
2016-11-27T05:22:23.798Z,29.5
2016-11-27T05:23:04.338Z,29.5
2016-11-27T05:23:44.893Z,29.5
2016-11-27T05:24:25.431Z,29.69
2016-11-27T05:25:05.990Z,29.6
2016-11-27T05:25:46.532Z,29.49
2016-11-27T05:26:27.069Z,29.69
2016-11-27T05:27:07.616Z,29.6
2016-11-27T05:27:48.167Z,29.79
2016-11-27T05:28:28.715Z,29.5
2016-11-27T05:29:09.256Z,29.6
2016-11-27T05:29:49.803Z,29.6
2016-11-27T05:30:30.344Z,29.89
2016-11-27T05:31:10.901Z,29.89
2016-11-27T05:31:51.433Z,29.6
2016-11-27T05:32:32.009Z,29.31
2016-11-27T05:33:12.544Z,29.89
2016-11-27T05:33:53.104Z,29.41
2016-11-27T05:34:33.645Z,29.69
2016-11-27T05:35:14.207Z,29.69
2016-11-27T05:35:54.759Z,29.5
2016-11-27T05:36:35.299Z,29.5
2016-11-27T05:37:15.837Z,29.41
2016-11-27T05:37:56.386Z,29.6
2016-11-27T05:38:36.921Z,29.89
2016-11-27T05:39:17.462Z,29.69
2016-11-27T05:39:58.009Z,29.5
2016-11-27T05:40:38.556Z,29.89
2016-11-27T05:41:19.114Z,29.6
2016-11-27T05:41:59.659Z,29.98
2016-11-27T05:42:40.196Z,29.6
2016-11-27T05:43:20.731Z,29.79
2016-11-27T05:44:01.265Z,29.79
2016-11-27T05:44:41.812Z,29.41
2016-11-27T05:45:22.353Z,29.89
2016-11-27T05:46:02.919Z,29.39
2016-11-27T05:46:43.467Z,29.5
2016-11-27T05:47:24.024Z,29.69
2016-11-27T05:48:04.562Z,29.5
2016-11-27T05:48:45.121Z,29.89
2016-11-27T05:49:25.667Z,29.6
2016-11-27T05:50:06.214Z,29.89
2016-11-27T05:50:46.758Z,29.89
2016-11-27T05:51:27.299Z,29.6
2016-11-27T05:52:07.840Z,29.41
2016-11-27T05:52:48.382Z,29.6
2016-11-27T05:53:28.925Z,29.69
2016-11-27T05:54:09.464Z,29.68
2016-11-27T05:54:50.014Z,29.69
2016-11-27T05:55:30.545Z,29.68
2016-11-27T05:56:11.098Z,29.6
2016-11-27T05:56:51.636Z,29.89
2016-11-27T05:57:32.200Z,29.98
2016-11-27T05:58:12.748Z,29.98
2016-11-27T05:58:53.294Z,29.6
2016-11-27T05:59:33.839Z,29.87
2016-11-27T06:00:14.384Z,29.41
2016-11-27T06:00:54.940Z,29.89
2016-11-27T06:01:35.488Z,29.89
2016-11-27T06:02:16.039Z,29.89
2016-11-27T06:02:56.586Z,29.89
2016-11-27T06:03:37.139Z,29.89
2016-11-27T06:04:17.681Z,29.79
2016-11-27T06:04:58.239Z,29.79
2016-11-27T06:05:38.785Z,29.5
2016-11-27T06:06:19.327Z,29.89
2016-11-27T06:06:59.872Z,29.5
2016-11-27T06:07:40.420Z,29.5
2016-11-27T06:08:20.953Z,29.79
2016-11-27T06:09:01.506Z,29.69
2016-11-27T06:09:42.047Z,29.69
2016-11-27T06:10:22.599Z,29.5
2016-11-27T06:11:03.142Z,29.69
2016-11-27T06:11:43.691Z,29.77
2016-11-27T06:12:24.255Z,29.79
2016-11-27T06:13:04.796Z,29.6
2016-11-27T06:13:45.328Z,29.69
2016-11-27T06:14:25.866Z,29.41
2016-11-27T06:15:06.411Z,29.41
2016-11-27T06:15:46.959Z,29.69
2016-11-27T06:16:27.501Z,29.69
2016-11-27T06:17:08.050Z,29.69
2016-11-27T06:17:48.600Z,29.69
2016-11-27T06:18:29.170Z,29.6
2016-11-27T06:19:09.720Z,29.69
2016-11-27T06:19:50.257Z,29.79
2016-11-27T06:20:30.798Z,29.69
2016-11-27T06:21:11.346Z,29.79
2016-11-27T06:21:51.900Z,29.89
2016-11-27T06:22:32.449Z,29.98
2016-11-27T06:23:13.000Z,29.79
2016-11-27T06:23:53.541Z,29.6
2016-11-27T06:24:34.085Z,29.5
2016-11-27T06:25:14.629Z,29.98
2016-11-27T06:25:55.171Z,29.5
2016-11-27T06:26:35.712Z,29.79
2016-11-27T06:27:16.259Z,29.5
2016-11-27T06:27:56.805Z,29.89
2016-11-27T06:28:37.360Z,29.89
2016-11-27T06:29:17.903Z,29.6
2016-11-27T06:29:58.447Z,29.49
2016-11-27T06:30:38.993Z,29.98
2016-11-27T06:31:19.539Z,29.89
2016-11-27T06:32:00.076Z,29.98
2016-11-27T06:32:40.626Z,29.79
2016-11-27T06:33:21.183Z,30.08
2016-11-27T06:34:01.734Z,29.79
2016-11-27T06:34:42.281Z,29.89
2016-11-27T06:35:22.826Z,29.98
2016-11-27T06:36:03.368Z,29.98
2016-11-27T06:36:43.906Z,30.08
2016-11-27T06:37:24.458Z,29.6
2016-11-27T06:38:05.006Z,29.69
2016-11-27T06:38:45.551Z,30.08
2016-11-27T06:39:26.099Z,30.08
2016-11-27T06:40:06.636Z,29.79
2016-11-27T06:40:47.196Z,30.08
2016-11-27T06:41:27.742Z,29.98
2016-11-27T06:42:08.292Z,29.79
2016-11-27T06:42:48.828Z,30.08
2016-11-27T06:43:29.369Z,29.58
2016-11-27T06:44:09.905Z,29.89
2016-11-27T06:44:50.445Z,29.89
2016-11-27T06:45:30.992Z,29.69
2016-11-27T06:46:11.542Z,29.89
2016-11-27T06:46:52.073Z,30.08
2016-11-27T06:47:32.624Z,30.08
2016-11-27T06:48:13.162Z,29.69
2016-11-27T06:48:53.708Z,30.08
2016-11-27T06:49:34.265Z,29.79
2016-11-27T06:50:14.817Z,29.79
2016-11-27T06:50:55.365Z,30.16
2016-11-27T06:51:35.918Z,29.98
2016-11-27T06:52:16.464Z,29.79
2016-11-27T06:52:57.014Z,30.18
2016-11-27T06:53:37.554Z,30.08
2016-11-27T06:54:18.107Z,29.87
2016-11-27T06:54:58.648Z,29.79
2016-11-27T06:55:39.190Z,30.08
2016-11-27T06:56:19.731Z,30.08
2016-11-27T06:57:00.282Z,29.98
2016-11-27T06:57:40.828Z,30.08
2016-11-27T06:58:21.376Z,30.18
2016-11-27T06:59:01.918Z,29.79
2016-11-27T06:59:42.474Z,30.08
2016-11-27T07:00:23.018Z,29.98
2016-11-27T07:01:03.570Z,30.18
2016-11-27T07:01:44.120Z,30.18
2016-11-27T07:02:24.661Z,30.27
2016-11-27T07:03:05.216Z,30.37
2016-11-27T07:03:45.763Z,29.98
2016-11-27T07:04:26.320Z,30.37
2016-11-27T07:05:06.868Z,29.89
2016-11-27T07:05:47.410Z,29.97
2016-11-27T07:06:27.946Z,30.18
2016-11-27T07:07:08.490Z,30.27
2016-11-27T07:07:49.040Z,30.27
2016-11-27T07:08:29.591Z,30.37
2016-11-27T07:09:10.123Z,30.08
2016-11-27T07:09:50.672Z,30.18
2016-11-27T07:10:31.236Z,30.46
2016-11-27T07:11:11.771Z,30.37
2016-11-27T07:11:52.327Z,29.79
2016-11-27T07:12:32.872Z,29.98
2016-11-27T07:13:13.427Z,30.08
2016-11-27T07:13:53.968Z,30.27
2016-11-27T07:14:34.504Z,30.18
2016-11-27T07:15:15.043Z,30.18
2016-11-27T07:15:55.586Z,30.27
2016-11-27T07:16:36.138Z,30.27
2016-11-27T07:17:16.693Z,30.08
2016-11-27T07:17:57.245Z,30.37
2016-11-27T07:18:37.789Z,30.37
2016-11-27T07:19:18.333Z,30.56
2016-11-27T07:19:58.878Z,30.08
2016-11-27T07:20:39.417Z,30.18
2016-11-27T07:21:19.959Z,30.18
2016-11-27T07:22:00.512Z,30.18
2016-11-27T07:22:41.058Z,30.18
2016-11-27T07:23:21.604Z,29.98
2016-11-27T07:24:02.149Z,30.27
2016-11-27T07:24:42.690Z,30.18
2016-11-27T07:25:23.244Z,30.18
2016-11-27T07:26:03.783Z,30.18
2016-11-27T07:26:44.345Z,30.18
2016-11-27T07:27:24.885Z,30.18
2016-11-27T07:28:05.428Z,30.27
2016-11-27T07:28:45.963Z,30.18
2016-11-27T07:29:26.518Z,30.27
2016-11-27T07:30:07.058Z,30.76
2016-11-27T07:30:47.604Z,30.18
2016-11-27T07:31:28.154Z,30.18
2016-11-27T07:32:08.696Z,30.56
2016-11-27T07:32:49.238Z,30.37
2016-11-27T07:33:29.779Z,30.45
2016-11-27T07:34:10.333Z,30.37
2016-11-27T07:34:50.875Z,30.27
2016-11-27T07:35:31.420Z,30.27
2016-11-27T07:36:11.969Z,29.79
2016-11-27T07:36:52.514Z,30.27
2016-11-27T07:37:33.062Z,30.27
2016-11-27T07:38:13.617Z,30.27
2016-11-27T07:38:54.153Z,30.37
2016-11-27T07:39:34.700Z,30.27
2016-11-27T07:40:15.242Z,30.27
2016-11-27T07:40:55.784Z,30.37
2016-11-27T07:41:36.332Z,30.08
2016-11-27T07:42:16.875Z,30.27
2016-11-27T07:42:57.414Z,30.27
2016-11-27T07:43:37.966Z,30.37
2016-11-27T07:44:18.513Z,30.46
2016-11-27T07:44:59.050Z,30.37
2016-11-27T07:45:39.589Z,30.37
2016-11-27T07:46:20.151Z,30.66
2016-11-27T07:47:00.696Z,30.46
2016-11-27T07:47:41.252Z,30.46
2016-11-27T07:48:21.802Z,30.18
2016-11-27T07:49:02.348Z,30.45
2016-11-27T07:49:42.897Z,30.46
2016-11-27T07:50:23.442Z,30.37
2016-11-27T07:51:03.989Z,29.89
2016-11-27T07:51:44.529Z,30.46
2016-11-27T07:52:25.089Z,30.56
2016-11-27T07:53:05.625Z,30.66
2016-11-27T07:53:46.174Z,30.46
2016-11-27T07:54:26.721Z,30.46
2016-11-27T07:55:07.284Z,30.66
2016-11-27T07:55:47.828Z,30.37
2016-11-27T07:56:28.387Z,30.46
2016-11-27T07:57:08.932Z,30.56
2016-11-27T07:57:49.476Z,30.35
2016-11-27T07:58:30.017Z,30.37
2016-11-27T07:59:10.556Z,30.46
2016-11-27T07:59:51.110Z,30.46
2016-11-27T08:00:31.651Z,30.37
2016-11-27T08:01:12.203Z,30.46
2016-11-27T08:01:52.738Z,30.37
2016-11-27T08:02:33.288Z,30.37
2016-11-27T08:03:13.830Z,30.27
2016-11-27T08:03:54.376Z,30.37
2016-11-27T08:04:34.921Z,30.27
2016-11-27T08:05:15.465Z,30.46
2016-11-27T08:05:56.001Z,30.37
2016-11-27T08:06:36.543Z,30.46
2016-11-27T08:07:17.086Z,30.37
2016-11-27T08:07:57.631Z,30.27
2016-11-27T08:08:38.183Z,30.56
2016-11-27T08:09:18.715Z,30.37
2016-11-27T08:09:59.271Z,30.46
2016-11-27T08:10:39.802Z,30.46
2016-11-27T08:11:20.337Z,30.27
2016-11-27T08:12:00.884Z,30.56
2016-11-27T08:12:41.428Z,30.46
2016-11-27T08:13:21.975Z,30.45
2016-11-27T08:14:02.512Z,30.46
2016-11-27T08:14:43.048Z,30.46
2016-11-27T08:15:23.594Z,30.37
2016-11-27T08:16:04.141Z,30.46
2016-11-27T08:16:44.672Z,30.27
2016-11-27T08:17:25.213Z,30.37
2016-11-27T08:18:05.754Z,30.37
2016-11-27T08:18:46.295Z,30.46
2016-11-27T08:19:26.835Z,30.27
2016-11-27T08:20:07.514Z,30.37
2016-11-27T08:20:48.059Z,30.37
2016-11-27T08:21:28.591Z,30.46
2016-11-27T08:22:09.142Z,30.37
2016-11-27T08:22:49.683Z,30.66
2016-11-27T08:23:30.226Z,30.37
2016-11-27T08:24:10.778Z,30.56
2016-11-27T08:24:51.327Z,30.35
2016-11-27T08:25:31.872Z,30.46
2016-11-27T08:26:12.424Z,30.56
2016-11-27T08:26:52.964Z,30.56
2016-11-27T08:27:33.505Z,30.46
2016-11-27T08:28:14.050Z,30.66
2016-11-27T08:28:54.600Z,30.26
2016-11-27T08:29:35.139Z,30.66
2016-11-27T08:30:15.676Z,30.37
2016-11-27T08:30:56.229Z,30.66
2016-11-27T08:31:36.769Z,30.66
2016-11-27T08:32:17.309Z,30.56
2016-11-27T08:32:57.861Z,30.66
2016-11-27T08:33:38.401Z,30.66
2016-11-27T08:34:18.952Z,30.56
2016-11-27T08:34:59.488Z,30.46
2016-11-27T08:35:40.046Z,30.27
2016-11-27T08:36:20.588Z,30.56
2016-11-27T08:37:01.133Z,30.46
2016-11-27T08:37:41.682Z,30.37
2016-11-27T08:38:22.248Z,30.37
2016-11-27T08:39:02.797Z,30.46
2016-11-27T08:39:43.347Z,30.37
2016-11-27T08:40:23.885Z,30.56
2016-11-27T08:41:04.441Z,30.56
2016-11-27T08:41:44.992Z,30.37
2016-11-27T08:42:25.528Z,30.56
2016-11-27T08:43:06.076Z,30.56